Time;durP1;ratioP1;P1;durP2;ratioP2;P2;SDS_P1;SDS_P2;PMS_P1;PMS_P2;Temp;Humidity;BMP_temperature;BMP_pressure;BME280_temperature;BME280_humidity;BME280_pressure;Samples;Min_cycle;Max_cycle;Signal;HPM_P1;HPM_P2
2023/06/15 00:01:59;;;;;;;2.33;1.35;;;15.80;88.20;;;;;;5020901;28;20113;-68
2023/06/15 00:04:24;;;;;;;2.15;1.20;;;15.80;88.60;;;;;;5013939;28;20018;-68
2023/06/15 00:06:50;;;;;;;1.83;1.40;;;15.80;89.10;;;;;;4996591;28;20495;-68
2023/06/15 00:09:16;;;;;;;2.50;1.65;;;15.70;89.60;;;;;;5017538;28;20018;-68
2023/06/15 00:11:41;;;;;;;2.33;1.40;;;15.70;90.00;;;;;;5017220;28;20029;-68
2023/06/15 00:14:07;;;;;;;5.07;1.65;;;15.60;90.40;;;;;;5015578;28;20034;-68
2023/06/15 00:16:33;;;;;;;5.40;1.67;;;15.60;90.60;;;;;;5015063;28;20498;-68
2023/06/15 00:19:01;;;;;;;2.65;1.70;;;15.50;90.70;;;;;;5015820;28;20030;-68
2023/06/15 00:21:30;;;;;;;2.95;1.65;;;15.50;90.90;;;;;;5018462;28;20049;-68
2023/06/15 00:23:56;;;;;;;2.50;1.30;;;15.40;91.00;;;;;;5015166;28;20025;-68
2023/06/15 00:26:21;;;;;;;2.42;1.65;;;15.40;91.20;;;;;;5016338;28;20488;-68
2023/06/15 00:29:18;;;;;;;3.97;1.60;;;15.40;91.40;;;;;;5015714;28;20065;-68
2023/06/15 00:31:43;;;;;;;3.95;1.67;;;15.40;91.60;;;;;;5013701;28;20025;-68
2023/06/15 00:34:09;;;;;;;1.85;1.42;;;15.30;91.70;;;;;;5014456;28;20104;-69
2023/06/15 00:36:35;;;;;;;2.33;1.33;;;15.30;91.90;;;;;;5017087;28;20037;-68
2023/06/15 00:39:01;;;;;;;4.40;1.60;;;15.30;92.20;;;;;;5021760;28;20025;-68
2023/06/15 00:41:26;;;;;;;2.63;1.50;;;15.20;92.40;;;;;;5022245;28;20032;-68
2023/06/15 00:43:52;;;;;;;4.13;2.60;;;15.20;92.60;;;;;;5013145;28;20021;-68
2023/06/15 00:46:18;;;;;;;4.35;1.63;;;15.10;92.80;;;;;;5018984;28;20055;-68
2023/06/15 00:48:44;;;;;;;2.47;1.63;;;15.10;92.90;;;;;;5014745;28;20030;-67
2023/06/15 00:51:10;;;;;;;2.50;1.75;;;15.10;92.80;;;;;;5009982;28;20038;-68
2023/06/15 00:53:37;;;;;;;4.43;1.40;;;15.20;92.60;;;;;;5020436;28;20835;-68
2023/06/15 00:56:04;;;;;;;2.72;1.65;;;15.30;92.50;;;;;;5013970;28;20395;-68
2023/06/15 00:58:31;;;;;;;4.97;1.38;;;15.40;92.40;;;;;;5016111;28;20030;-68
2023/06/15 01:00:56;;;;;;;2.25;1.13;;;15.40;92.30;;;;;;5013245;28;20038;-68
2023/06/15 01:03:22;;;;;;;5.47;2.10;;;15.40;92.30;;;;;;5014382;28;20030;-67
2023/06/15 01:05:52;;;;;;;2.13;1.45;;;15.40;92.20;;;;;;5022307;28;20483;-70
2023/06/15 01:08:20;;;;;;;2.47;1.60;;;15.40;92.20;;;;;;4999127;28;20053;-68
2023/06/15 01:10:47;;;;;;;1.83;1.23;;;15.50;92.30;;;;;;5016145;28;20034;-67
2023/06/15 01:13:13;;;;;;;3.80;1.48;;;15.50;92.30;;;;;;5018950;28;20017;-68
2023/06/15 01:15:42;;;;;;;2.60;1.40;;;15.50;92.40;;;;;;5021090;28;20113;-68
2023/06/15 01:18:08;;;;;;;2.83;1.80;;;15.50;92.60;;;;;;5018487;28;20155;-68
2023/06/15 01:20:42;;;;;;;3.58;1.77;;;15.40;93.00;;;;;;5017942;28;20044;-68
2023/06/15 01:23:10;;;;;;;2.80;1.52;;;15.30;93.40;;;;;;5022976;28;20034;-68
2023/06/15 01:25:45;;;;;;;5.90;1.63;;;15.20;93.80;;;;;;5020323;28;20034;-68
2023/06/15 01:28:15;;;;;;;5.65;1.85;;;15.00;94.40;;;;;;5021382;28;20061;-67
2023/06/15 01:30:46;;;;;;;3.45;2.00;;;14.90;94.80;;;;;;5023678;28;20046;-68
2023/06/15 01:33:12;;;;;;;2.42;1.63;;;14.70;95.40;;;;;;5023539;28;20056;-66
2023/06/15 01:35:38;;;;;;;4.43;1.80;;;14.60;96.00;;;;;;5022391;28;20503;-68
2023/06/15 01:38:04;;;;;;;4.47;2.13;;;14.40;96.60;;;;;;5025350;28;20056;-68
2023/06/15 01:40:34;;;;;;;4.22;1.63;;;14.30;97.20;;;;;;5021685;28;20068;-68
2023/06/15 01:43:01;;;;;;;2.97;1.85;;;14.20;97.70;;;;;;5024034;28;20566;-68
2023/06/15 01:45:29;;;;;;;4.93;1.67;;;14.10;98.20;;;;;;5024069;28;20495;-68
2023/06/15 01:47:55;;;;;;;3.65;2.15;;;14.00;98.60;;;;;;5019433;28;20030;-68
2023/06/15 01:50:22;;;;;;;4.22;2.05;;;13.90;99.10;;;;;;5024244;28;20540;-68
2023/06/15 01:52:48;;;;;;;3.63;2.65;;;13.80;99.60;;;;;;5023873;28;20466;-68
2023/06/15 01:55:13;;;;;;;4.38;2.65;;;13.80;99.90;;;;;;5017688;28;20041;-68
2023/06/15 01:57:40;;;;;;;6.47;2.42;;;13.80;99.90;;;;;;5015841;28;20061;-68
2023/06/15 02:00:10;;;;;;;7.60;2.83;;;13.80;99.90;;;;;;5017805;28;20053;-68
2023/06/15 02:02:37;;;;;;;8.70;2.65;;;13.70;99.90;;;;;;5023719;28;20022;-68
2023/06/15 02:05:04;;;;;;;4.55;2.70;;;13.70;99.90;;;;;;5018081;28;20044;-68
2023/06/15 02:07:29;;;;;;;9.82;3.15;;;13.60;99.90;;;;;;5005817;28;20562;-68
2023/06/15 02:09:55;;;;;;;5.00;2.90;;;13.50;99.90;;;;;;5018609;28;20125;-68
2023/06/15 02:12:21;;;;;;;8.07;3.22;;;13.50;99.90;;;;;;5012748;28;20033;-67
2023/06/15 02:14:50;;;;;;;7.60;4.63;;;13.40;99.90;;;;;;5017033;28;20033;-68
2023/06/15 02:17:19;;;;;;;9.88;4.82;;;13.40;99.90;;;;;;5018376;28;20544;-67
2023/06/15 02:19:46;;;;;;;6.00;3.15;;;13.40;99.90;;;;;;5013472;28;20087;-68
2023/06/15 02:22:12;;;;;;;7.28;2.95;;;13.30;99.90;;;;;;5017999;28;20037;-68
2023/06/15 02:24:37;;;;;;;5.82;3.08;;;13.30;99.90;;;;;;5014823;28;20466;-67
2023/06/15 02:27:03;;;;;;;6.18;2.70;;;13.30;99.90;;;;;;5020363;28;20033;-68
2023/06/15 02:29:28;;;;;;;8.05;3.50;;;13.40;99.90;;;;;;5014565;28;20022;-68
2023/06/15 02:31:54;;;;;;;7.50;3.22;;;13.40;99.90;;;;;;5021026;28;20519;-68
2023/06/15 02:34:20;;;;;;;7.80;3.58;;;13.40;99.90;;;;;;5016216;28;20029;-68
2023/06/15 02:36:48;;;;;;;3.35;2.33;;;13.50;99.90;;;;;;5018417;28;20108;-68
2023/06/15 02:39:14;;;;;;;8.68;3.05;;;13.50;99.90;;;;;;5016974;28;20113;-68
2023/06/15 02:41:40;;;;;;;5.07;2.58;;;13.50;99.90;;;;;;5024152;28;20558;-68
2023/06/15 02:44:07;;;;;;;3.88;2.90;;;13.50;99.90;;;;;;5019800;28;20037;-68
2023/06/15 02:46:33;;;;;;;5.20;2.88;;;13.40;99.90;;;;;;5020303;28;20044;-68
2023/06/15 02:48:58;;;;;;;4.45;2.80;;;13.40;99.90;;;;;;5014877;28;20488;-68
2023/06/15 02:51:24;;;;;;;3.90;2.35;;;13.40;99.90;;;;;;5016026;28;20029;-68
2023/06/15 02:53:49;;;;;;;5.45;2.75;;;13.40;99.90;;;;;;5020265;28;20017;-67
2023/06/15 02:56:18;;;;;;;3.83;2.75;;;13.30;99.90;;;;;;5015843;28;20033;-68
2023/06/15 02:59:05;;;;;;;3.58;2.38;;;13.30;99.90;;;;;;5019294;28;20145;-67
2023/06/15 03:01:38;;;;;;;3.70;2.42;;;13.20;99.90;;;;;;5015882;28;20030;-68
2023/06/15 03:04:14;;;;;;;4.27;2.90;;;13.10;99.90;;;;;;5016498;28;20087;-67
2023/06/15 03:06:41;;;;;;;4.45;2.72;;;13.10;99.90;;;;;;5022059;28;20025;-68
2023/06/15 03:09:07;;;;;;;5.13;2.33;;;13.00;99.90;;;;;;4998889;28;20518;-68
2023/06/15 03:11:32;;;;;;;4.25;2.70;;;12.90;99.90;;;;;;5014460;28;20034;-68
2023/06/15 03:13:58;;;;;;;4.03;2.60;;;12.90;99.90;;;;;;5018713;28;20117;-68
2023/06/15 03:16:25;;;;;;;5.75;2.72;;;12.80;99.90;;;;;;5019946;28;20033;-68
2023/06/15 03:18:52;;;;;;;3.25;2.40;;;12.80;99.90;;;;;;5018398;28;21001;-68
2023/06/15 03:21:20;;;;;;;3.92;2.70;;;12.70;99.90;;;;;;5015721;28;20511;-68
2023/06/15 03:23:45;;;;;;;4.28;2.70;;;12.70;99.90;;;;;;5017708;28;20566;-68
2023/06/15 03:26:11;;;;;;;3.60;2.30;;;12.70;99.90;;;;;;5024283;28;20030;-67
2023/06/15 03:28:38;;;;;;;3.90;2.35;;;12.70;99.90;;;;;;5014804;28;20053;-67
2023/06/15 03:31:04;;;;;;;3.42;2.17;;;12.70;99.90;;;;;;5023155;28;20106;-68
2023/06/15 03:33:30;;;;;;;5.47;2.72;;;12.60;99.90;;;;;;5016779;28;20423;-68
2023/06/15 03:35:57;;;;;;;6.65;2.63;;;12.60;99.90;;;;;;5025823;28;20574;-68
2023/06/15 03:38:23;;;;;;;5.80;2.67;;;12.60;99.90;;;;;;5019192;28;20159;-66
2023/06/15 03:40:49;;;;;;;5.38;2.90;;;12.60;99.90;;;;;;5021372;28;20151;-66
2023/06/15 03:43:15;;;;;;;4.10;2.47;;;12.60;99.90;;;;;;5022540;28;20034;-66
2023/06/15 03:45:40;;;;;;;4.88;2.55;;;12.70;99.90;;;;;;5023396;28;20038;-66
2023/06/15 03:48:06;;;;;;;3.83;2.67;;;12.60;99.90;;;;;;5026797;28;20100;-67
2023/06/15 03:50:33;;;;;;;5.10;2.85;;;12.70;99.90;;;;;;5022373;28;20029;-67
2023/06/15 03:52:58;;;;;;;6.50;2.80;;;12.60;99.90;;;;;;5025595;28;20040;-67
2023/06/15 03:55:25;;;;;;;6.68;2.47;;;12.70;99.90;;;;;;5026290;28;20406;-66
2023/06/15 03:57:51;;;;;;;4.45;2.90;;;12.70;99.90;;;;;;5016369;28;20033;-67
2023/06/15 04:00:16;;;;;;;4.22;2.70;;;12.70;99.90;;;;;;5018555;28;20028;-67
2023/06/15 04:02:42;;;;;;;9.88;2.88;;;12.80;99.90;;;;;;5022703;28;20503;-66
2023/06/15 04:05:09;;;;;;;7.85;2.53;;;12.80;99.90;;;;;;5022752;28;20498;-66
2023/06/15 04:07:35;;;;;;;5.25;3.00;;;12.80;99.90;;;;;;5022703;28;20013;-67
2023/06/15 04:10:01;;;;;;;5.30;2.92;;;12.80;99.90;;;;;;5001776;28;20057;-67
2023/06/15 04:12:26;;;;;;;8.68;3.47;;;12.90;99.90;;;;;;5016383;28;20105;-67
2023/06/15 04:14:52;;;;;;;7.03;3.25;;;12.90;99.90;;;;;;5022318;28;20722;-67
2023/06/15 04:17:18;;;;;;;7.38;3.42;;;12.90;99.90;;;;;;5016909;28;20053;-67
2023/06/15 04:19:44;;;;;;;8.57;3.05;;;12.90;99.90;;;;;;5024507;28;20112;-66
2023/06/15 04:22:10;;;;;;;5.35;3.20;;;12.90;99.90;;;;;;5012707;28;20030;-67
2023/06/15 04:24:36;;;;;;;6.30;3.78;;;13.00;99.90;;;;;;5018568;28;20022;-66
2023/06/15 04:27:02;;;;;;;7.30;3.75;;;13.00;99.90;;;;;;5012882;28;20583;-67
2023/06/15 04:29:30;;;;;;;7.05;3.67;;;13.10;99.90;;;;;;5020903;28;20029;-67
2023/06/15 04:31:57;;;;;;;8.80;3.50;;;13.20;99.90;;;;;;5015899;28;20109;-67
2023/06/15 04:34:24;;;;;;;10.50;3.05;;;13.50;99.90;;;;;;5021443;28;20022;-67
2023/06/15 04:36:50;;;;;;;6.18;3.88;;;14.20;99.90;;;;;;5015083;28;20053;-67
2023/06/15 04:39:16;;;;;;;7.22;3.60;;;15.30;99.90;;;;;;5021827;28;20030;-67
2023/06/15 04:41:42;;;;;;;8.15;4.63;;;16.40;99.90;;;;;;5016912;28;20025;-67
2023/06/15 04:44:08;;;;;;;5.18;3.75;;;17.40;98.70;;;;;;5016607;28;20033;-67
2023/06/15 04:46:38;;;;;;;6.45;3.33;;;18.30;96.10;;;;;;5018848;28;20022;-67
2023/06/15 04:49:04;;;;;;;6.15;3.33;;;18.90;94.20;;;;;;5013074;28;20054;-67
2023/06/15 04:51:30;;;;;;;8.57;4.20;;;19.40;92.40;;;;;;5016921;28;20033;-67
2023/06/15 04:53:56;;;;;;;8.85;3.83;;;19.80;91.10;;;;;;5020485;28;20040;-68
2023/06/15 04:56:22;;;;;;;4.28;3.33;;;20.40;90.20;;;;;;5021531;28;20034;-67
2023/06/15 04:58:48;;;;;;;4.57;2.90;;;21.10;85.70;;;;;;5024679;28;20033;-68
2023/06/15 05:01:14;;;;;;;8.57;3.03;;;21.90;82.40;;;;;;5015951;28;20112;-67
2023/06/15 05:03:40;;;;;;;5.50;3.20;;;22.60;78.60;;;;;;5019726;28;20504;-67
2023/06/15 05:06:07;;;;;;;6.57;3.28;;;23.20;76.60;;;;;;5020351;28;20032;-68
2023/06/15 05:08:33;;;;;;;7.63;2.90;;;23.90;74.40;;;;;;5003541;28;20479;-68
2023/06/15 05:10:59;;;;;;;3.95;2.42;;;24.40;72.60;;;;;;5014339;28;20052;-68
2023/06/15 05:13:25;;;;;;;5.72;2.95;;;24.40;72.70;;;;;;5019111;28;20022;-68
2023/06/15 05:15:51;;;;;;;8.85;2.97;;;25.10;70.00;;;;;;5020328;28;20407;-67
2023/06/15 05:18:17;;;;;;;7.25;3.60;;;25.50;68.30;;;;;;5016674;28;20046;-68
2023/06/15 05:20:42;;;;;;;6.55;2.88;;;25.80;67.10;;;;;;5018877;28;20048;-67
2023/06/15 05:23:08;;;;;;;3.80;2.63;;;25.90;66.90;;;;;;5019737;28;20087;-67
2023/06/15 05:25:34;;;;;;;4.50;2.53;;;26.20;66.00;;;;;;5016006;28;20029;-67
2023/06/15 05:27:59;;;;;;;4.22;2.88;;;26.40;66.70;;;;;;5021291;28;20787;-67
2023/06/15 05:30:26;;;;;;;4.57;2.75;;;26.50;66.10;;;;;;5015518;28;20029;-68
2023/06/15 05:32:55;;;;;;;6.10;2.63;;;26.90;65.60;;;;;;5014978;28;20022;-67
2023/06/15 05:35:21;;;;;;;4.28;2.85;;;27.20;64.60;;;;;;5021765;28;20022;-68
2023/06/15 05:37:47;;;;;;;4.38;3.22;;;27.30;63.50;;;;;;5020629;28;20095;-68
2023/06/15 05:40:13;;;;;;;5.18;2.60;;;27.40;63.20;;;;;;5016546;28;20025;-68
2023/06/15 05:42:39;;;;;;;8.35;2.28;;;27.40;63.60;;;;;;5017262;28;20049;-68
2023/06/15 05:45:05;;;;;;;5.47;2.55;;;27.20;63.90;;;;;;5017735;28;20100;-67
2023/06/15 05:47:32;;;;;;;7.97;2.78;;;27.70;64.20;;;;;;5019685;28;20014;-68
2023/06/15 05:49:57;;;;;;;10.38;2.67;;;28.30;62.20;;;;;;5013176;28;20030;-67
2023/06/15 05:52:23;;;;;;;5.03;2.40;;;27.90;63.90;;;;;;5020541;28;20033;-68
2023/06/15 05:54:49;;;;;;;6.78;2.40;;;27.90;62.80;;;;;;5019841;28;20479;-68
2023/06/15 05:57:15;;;;;;;5.05;2.90;;;28.20;61.10;;;;;;5019575;28;20034;-70
2023/06/15 05:59:41;;;;;;;6.07;2.70;;;29.10;60.70;;;;;;5019968;28;20037;-68
2023/06/15 06:02:07;;;;;;;3.72;2.42;;;29.40;61.00;;;;;;5019448;28;20021;-68
2023/06/15 06:04:34;;;;;;;3.58;2.50;;;29.00;59.70;;;;;;5019546;28;20722;-68
2023/06/15 06:07:00;;;;;;;3.13;2.15;;;29.40;60.00;;;;;;5018241;28;20060;-68
2023/06/15 06:09:25;;;;;;;5.53;2.58;;;28.90;61.20;;;;;;5016323;28;20189;-68
2023/06/15 06:11:51;;;;;;;3.42;2.17;;;29.40;60.00;;;;;;5003717;28;20132;-68
2023/06/15 06:14:16;;;;;;;5.72;2.17;;;30.10;57.90;;;;;;5018233;28;20083;-68
2023/06/15 06:16:43;;;;;;;4.50;2.15;;;30.70;57.40;;;;;;5020456;28;20037;-67
2023/06/15 06:19:08;;;;;;;3.20;2.22;;;31.30;55.40;;;;;;5018932;28;20039;-68
2023/06/15 06:21:34;;;;;;;3.08;2.38;;;30.80;56.40;;;;;;5017345;28;20021;-65
2023/06/15 06:24:00;;;;;;;6.65;2.58;;;32.10;55.80;;;;;;5013049;28;20395;-68
2023/06/15 06:26:25;;;;;;;4.90;2.40;;;31.80;56.20;;;;;;5015617;28;20049;-68
2023/06/15 06:28:52;;;;;;;3.13;2.13;;;31.80;55.80;;;;;;5016754;28;20026;-69
2023/06/15 06:31:18;;;;;;;4.38;2.25;;;32.40;55.90;;;;;;5020680;28;20451;-69
2023/06/15 06:33:43;;;;;;;6.82;2.33;;;32.30;54.90;;;;;;5015795;28;20037;-68
2023/06/15 06:36:09;;;;;;;10.20;2.17;;;32.80;54.10;;;;;;5016618;28;20030;-65
2023/06/15 06:38:35;;;;;;;8.07;2.40;;;31.80;55.00;;;;;;5017813;28;20036;-66
2023/06/15 06:41:01;;;;;;;2.58;2.00;;;31.00;56.00;;;;;;5018651;28;20034;-68
2023/06/15 06:43:27;;;;;;;3.20;2.03;;;31.60;56.10;;;;;;5018302;28;20025;-68
2023/06/15 06:45:52;;;;;;;10.27;2.13;;;31.80;56.50;;;;;;5019527;28;20037;-66
2023/06/15 06:48:18;;;;;;;8.57;2.38;;;31.60;55.40;;;;;;5021204;28;20029;-66
2023/06/15 06:50:44;;;;;;;8.82;2.38;;;32.20;55.60;;;;;;5018358;28;20095;-66
2023/06/15 06:53:11;;;;;;;4.20;2.78;;;32.40;55.00;;;;;;5021591;28;20017;-66
2023/06/15 06:55:36;;;;;;;6.13;2.15;;;32.30;55.60;;;;;;5016613;28;20021;-65
2023/06/15 06:58:02;;;;;;;6.28;2.33;;;32.00;55.80;;;;;;5019887;28;20096;-66
2023/06/15 07:00:31;;;;;;;3.38;2.08;;;32.50;57.10;;;;;;5022386;28;20037;-66
2023/06/15 07:02:57;;;;;;;7.38;2.58;;;32.80;55.90;;;;;;5021534;28;20116;-66
2023/06/15 07:05:23;;;;;;;11.68;2.25;;;33.10;54.90;;;;;;5024090;28;20029;-66
2023/06/15 07:07:48;;;;;;;3.33;2.45;;;33.40;56.10;;;;;;5025314;28;20021;-66
2023/06/15 07:10:14;;;;;;;4.38;2.25;;;32.50;55.40;;;;;;5009114;28;20030;-66
2023/06/15 07:12:40;;;;;;;3.40;2.17;;;32.60;55.50;;;;;;5025655;28;20020;-66
2023/06/15 07:15:06;;;;;;;4.22;2.20;;;32.70;55.50;;;;;;5024767;28;20017;-65
2023/06/15 07:17:32;;;;;;;3.30;2.13;;;33.00;55.50;;;;;;5018727;28;20048;-66
2023/06/15 07:19:58;;;;;;;4.07;2.90;;;33.40;53.30;;;;;;5023848;28;20033;-67
2023/06/15 07:22:24;;;;;;;3.10;2.10;;;33.40;53.40;;;;;;5026387;28;20382;-66
2023/06/15 07:24:51;;;;;;;3.08;1.90;;;33.60;54.00;;;;;;5018209;28;20061;-66
2023/06/15 07:27:18;;;;;;;7.90;2.30;;;33.70;52.50;;;;;;5029329;28;20387;-66
2023/06/15 07:29:44;;;;;;;7.90;2.60;;;33.80;51.00;;;;;;5019637;28;20500;-66
2023/06/15 07:32:10;;;;;;;3.95;2.17;;;34.20;52.00;;;;;;5015589;28;20056;-66
2023/06/15 07:34:35;;;;;;;3.88;2.47;;;34.10;52.60;;;;;;5019351;28;20030;-66
2023/06/15 07:37:01;;;;;;;8.93;2.45;;;35.10;53.40;;;;;;5014786;28;20230;-67
2023/06/15 07:39:27;;;;;;;2.38;1.90;;;35.30;51.00;;;;;;5019388;28;20087;-67
2023/06/15 07:41:52;;;;;;;3.25;2.42;;;36.40;51.30;;;;;;5020048;28;20113;-67
2023/06/15 07:44:18;;;;;;;2.72;1.92;;;35.80;49.40;;;;;;5023132;28;20042;-67
2023/06/15 07:46:44;;;;;;;6.15;2.20;;;36.50;50.10;;;;;;5017542;28;20022;-65
2023/06/15 07:49:09;;;;;;;5.80;2.22;;;35.70;48.10;;;;;;5020064;28;20659;-66
2023/06/15 07:51:35;;;;;;;2.38;2.15;;;35.20;49.80;;;;;;5015218;28;20411;-66
2023/06/15 07:54:01;;;;;;;3.33;2.50;;;34.30;50.10;;;;;;5014455;28;20040;-66
2023/06/15 07:56:27;;;;;;;7.50;2.15;;;33.60;50.30;;;;;;5018333;28;20029;-66
2023/06/15 07:58:53;;;;;;;3.83;2.10;;;33.80;50.70;;;;;;5015964;28;20041;-66
2023/06/15 08:01:20;;;;;;;4.90;2.30;;;34.90;47.70;;;;;;5016429;28;20116;-67
2023/06/15 08:03:46;;;;;;;4.95;1.80;;;34.60;50.40;;;;;;5022334;28;20033;-67
2023/06/15 08:06:11;;;;;;;8.82;2.45;;;34.80;50.60;;;;;;5016064;28;20408;-66
2023/06/15 08:08:38;;;;;;;4.03;2.25;;;35.10;47.10;;;;;;5017759;28;20038;-66
2023/06/15 08:11:05;;;;;;;2.35;2.00;;;35.20;46.70;;;;;;5004215;28;20041;-66
2023/06/15 08:13:31;;;;;;;5.10;2.30;;;35.30;45.70;;;;;;5020265;28;20025;-66
2023/06/15 08:15:57;;;;;;;4.93;2.15;;;35.00;47.60;;;;;;5017758;28;20029;-67
2023/06/15 08:18:23;;;;;;;3.40;1.88;;;35.10;47.30;;;;;;5022069;28;20026;-66
2023/06/15 08:20:48;;;;;;;4.57;2.10;;;35.10;48.10;;;;;;5020229;28;20033;-66
2023/06/15 08:23:15;;;;;;;3.63;2.30;;;35.80;47.70;;;;;;5016120;28;21308;-66
2023/06/15 08:25:41;;;;;;;3.17;2.00;;;36.00;45.80;;;;;;5015686;28;20088;-67
2023/06/15 08:28:07;;;;;;;4.07;1.95;;;36.30;46.60;;;;;;5018340;28;20507;-66
2023/06/15 08:30:32;;;;;;;5.78;2.38;;;35.80;46.70;;;;;;5016797;28;20033;-67
2023/06/15 08:32:58;;;;;;;7.00;2.50;;;36.50;47.80;;;;;;5016520;28;20026;-66
2023/06/15 08:35:23;;;;;;;8.18;2.63;;;35.40;47.10;;;;;;5021130;28;20056;-67
2023/06/15 08:37:49;;;;;;;7.50;3.05;;;36.00;45.40;;;;;;5021739;28;20546;-66
2023/06/15 08:40:15;;;;;;;3.58;2.33;;;35.00;46.40;;;;;;5013844;28;20132;-67
2023/06/15 08:42:41;;;;;;;7.93;2.50;;;35.20;48.90;;;;;;5025817;28;20033;-66
2023/06/15 08:45:07;;;;;;;4.38;1.80;;;36.20;45.80;;;;;;5019617;28;20029;-66
2023/06/15 08:47:36;;;;;;;5.30;2.17;;;36.20;46.20;;;;;;5025276;28;20045;-67
2023/06/15 08:50:04;;;;;;;5.93;2.38;;;36.20;46.50;;;;;;5015063;28;20057;-67
2023/06/15 08:52:35;;;;;;;6.50;2.85;;;36.30;46.60;;;;;;5016836;28;20102;-67
2023/06/15 08:55:02;;;;;;;8.60;2.33;;;36.50;43.30;;;;;;5021415;28;20105;-67
2023/06/15 08:57:28;;;;;;;2.95;1.90;;;35.30;44.90;;;;;;5018477;28;20030;-67
2023/06/15 08:59:55;;;;;;;4.30;2.28;;;35.50;44.70;;;;;;5013761;28;20026;-66
2023/06/15 09:02:22;;;;;;;7.03;2.10;;;36.40;43.40;;;;;;5020139;28;20386;-66
2023/06/15 09:04:51;;;;;;;2.10;1.90;;;35.90;44.80;;;;;;5022091;28;20032;-66
2023/06/15 09:07:21;;;;;;;5.40;2.55;;;35.90;45.10;;;;;;5022455;28;20021;-66
2023/06/15 09:10:09;;;;;;;3.50;2.75;;;36.00;47.50;;;;;;5020382;28;20052;-67
2023/06/15 09:12:34;;;;;;;6.03;2.90;;;36.70;44.30;;;;;;5003277;28;20536;-67
2023/06/15 09:15:00;;;;;;;5.88;2.50;;;36.50;44.80;;;;;;5019634;28;20045;-66
2023/06/15 09:17:29;;;;;;;4.25;2.08;;;36.70;44.70;;;;;;5020351;28;20025;-66
2023/06/15 09:19:55;;;;;;;10.05;2.60;;;36.70;46.40;;;;;;5021554;28;20447;-66
2023/06/15 09:22:21;;;;;;;5.28;2.17;;;36.70;43.70;;;;;;5021620;28;20025;-66
2023/06/15 09:24:47;;;;;;;4.78;2.20;;;35.30;44.20;;;;;;5021474;28;20385;-66
2023/06/15 09:27:16;;;;;;;16.80;2.53;;;34.00;45.30;;;;;;5016628;28;20041;-66
2023/06/15 09:30:05;;;;;;;2.85;1.90;;;33.60;45.20;;;;;;5013864;28;20026;-67
2023/06/15 09:32:30;;;;;;;7.65;2.40;;;33.40;46.00;;;;;;5017271;28;20053;-66
2023/06/15 09:35:00;;;;;;;5.63;2.08;;;32.50;46.60;;;;;;5018213;28;20517;-66
2023/06/15 09:37:29;;;;;;;3.65;2.13;;;32.70;46.50;;;;;;5012726;28;20029;-66
2023/06/15 09:39:56;;;;;;;6.10;2.25;;;32.10;48.20;;;;;;5021584;28;20037;-66
2023/06/15 09:42:26;;;;;;;6.05;2.30;;;32.10;48.50;;;;;;5021481;28;20049;-67
2023/06/15 09:45:05;;;;;;;4.78;1.95;;;32.10;46.10;;;;;;5020755;28;20079;-67
2023/06/15 09:47:31;;;;;;;5.43;1.95;;;31.80;45.80;;;;;;5017975;28;20045;-66
2023/06/15 09:49:58;;;;;;;3.95;2.38;;;31.20;46.00;;;;;;5019767;28;20029;-67
2023/06/15 09:52:24;;;;;;;3.85;2.35;;;31.40;44.40;;;;;;5018564;28;20075;-67
2023/06/15 09:54:54;;;;;;;7.65;1.83;;;31.50;44.30;;;;;;5017140;28;20030;-67
2023/06/15 09:57:20;;;;;;;3.90;2.03;;;30.70;46.90;;;;;;5021159;28;20399;-66
2023/06/15 09:59:46;;;;;;;2.90;2.08;;;31.40;46.50;;;;;;5018522;28;20025;-67
2023/06/15 10:02:12;;;;;;;11.00;3.75;;;31.60;47.40;;;;;;5020451;28;20515;-67
2023/06/15 10:04:40;;;;;;;11.27;2.30;;;32.40;45.50;;;;;;5017217;28;20049;-66
2023/06/15 10:07:10;;;;;;;3.92;2.25;;;32.80;46.00;;;;;;5019696;28;20018;-67
2023/06/15 10:09:39;;;;;;;5.50;2.78;;;32.90;45.40;;;;;;5018750;28;20159;-67
2023/06/15 10:12:16;;;;;;;6.13;2.63;;;32.60;47.70;;;;;;5017732;28;20519;-67
2023/06/15 10:15:01;;;;;;;9.43;2.40;;;31.80;45.50;;;;;;5018388;28;20794;-66
2023/06/15 10:17:37;;;;;;;5.10;2.50;;;31.00;45.80;;;;;;5020293;28;20087;-66
2023/06/15 10:20:08;;;;;;;3.05;1.75;;;30.20;45.30;;;;;;5019407;28;20022;-67
2023/06/15 10:22:38;;;;;;;3.50;2.15;;;29.60;48.10;;;;;;5019790;28;20045;-66
2023/06/15 10:25:05;;;;;;;9.95;2.30;;;28.70;46.00;;;;;;5017183;28;20036;-66
2023/06/15 10:27:30;;;;;;;5.28;2.22;;;29.00;47.50;;;;;;5020022;28;20041;-66
2023/06/15 10:30:31;;;;;;;3.25;1.73;;;29.30;47.00;;;;;;5017166;28;20029;-66
2023/06/15 10:33:19;;;;;;;3.15;2.20;;;29.40;47.30;;;;;;5019798;28;20032;-66
2023/06/15 10:36:03;;;;;;;4.13;1.90;;;28.90;48.10;;;;;;5018512;28;20561;-66
2023/06/15 10:38:38;;;;;;;5.65;1.90;;;28.80;47.70;;;;;;5020457;28;20036;-66
2023/06/15 10:41:05;;;;;;;4.60;2.60;;;28.70;47.00;;;;;;5018893;28;20101;-69
2023/06/15 10:43:30;;;;;;;6.28;2.25;;;28.60;47.40;;;;;;5019245;28;20456;-66
2023/06/15 10:45:56;;;;;;;6.30;2.50;;;28.70;47.70;;;;;;5018319;28;20029;-66
2023/06/15 10:48:27;;;;;;;4.75;2.10;;;28.80;47.30;;;;;;5020548;28;20040;-66
2023/06/15 10:51:06;;;;;;;4.50;2.22;;;29.10;48.10;;;;;;5022728;28;20048;-66
2023/06/15 10:53:45;;;;;;;5.80;2.25;;;28.90;50.00;;;;;;5028745;28;20480;-66
2023/06/15 10:56:15;;;;;;;5.43;2.28;;;29.00;48.00;;;;;;5023877;28;20033;-66
2023/06/15 10:59:01;;;;;;;3.60;1.60;;;29.60;46.00;;;;;;5021585;28;20472;-67
2023/06/15 11:01:32;;;;;;;3.47;2.13;;;29.50;46.80;;;;;;5022906;28;20041;-65
2023/06/15 11:03:59;;;;;;;3.78;1.92;;;29.90;47.30;;;;;;5015569;28;20390;-66
2023/06/15 11:06:31;;;;;;;4.00;1.77;;;29.60;45.70;;;;;;5024768;28;20120;-66
2023/06/15 11:09:12;;;;;;;7.03;2.10;;;29.60;45.80;;;;;;5019780;28;20057;-66
2023/06/15 11:11:43;;;;;;;9.32;2.72;;;29.50;46.00;;;;;;4993873;28;20046;-66
2023/06/15 11:14:22;;;;;;;5.05;2.00;;;29.50;44.70;;;;;;5016802;28;20099;-66
2023/06/15 11:17:04;;;;;;;3.95;2.45;;;29.40;42.60;;;;;;5014970;28;20041;-65
2023/06/15 11:19:30;;;;;;;5.07;2.67;;;29.30;44.50;;;;;;5020113;28;20017;-66
2023/06/15 11:22:06;;;;;;;4.20;2.05;;;29.20;44.90;;;;;;5015345;28;20033;-66
2023/06/15 11:24:36;;;;;;;2.20;1.85;;;29.20;44.60;;;;;;5018982;28;20609;-69
2023/06/15 11:27:04;;;;;;;6.45;2.17;;;28.70;46.40;;;;;;5016812;28;20605;-67
2023/06/15 11:29:33;;;;;;;5.95;2.25;;;28.90;46.90;;;;;;5033275;28;20169;-68
2023/06/15 11:32:01;;;;;;;8.68;2.10;;;28.90;46.80;;;;;;5023000;28;20057;-68
2023/06/15 11:34:27;;;;;;;6.47;2.10;;;29.20;46.70;;;;;;5020383;28;20078;-68
2023/06/15 11:37:00;;;;;;;3.28;2.05;;;29.10;46.80;;;;;;5015837;28;20029;-68
2023/06/15 11:39:28;;;;;;;4.82;2.20;;;29.30;45.80;;;;;;5010216;28;20025;-68
2023/06/15 11:41:56;;;;;;;7.93;2.42;;;29.30;45.40;;;;;;5013563;28;20795;-68
2023/06/15 11:44:23;;;;;;;5.10;1.92;;;29.20;47.20;;;;;;5008746;28;20030;-68
2023/06/15 11:46:59;;;;;;;3.92;1.85;;;28.90;46.50;;;;;;5016077;28;20090;-67
2023/06/15 11:49:31;;;;;;;3.47;2.17;;;28.50;46.10;;;;;;5014116;28;20040;-68
2023/06/15 11:51:56;;;;;;;5.53;2.28;;;28.10;46.60;;;;;;5021588;28;20061;-66
2023/06/15 11:54:24;;;;;;;5.70;1.98;;;28.00;48.30;;;;;;5019943;28;20067;-68
2023/06/15 11:56:50;;;;;;;5.68;2.00;;;28.10;47.90;;;;;;5017151;28;20490;-68
2023/06/15 11:59:17;;;;;;;3.45;2.22;;;28.20;46.10;;;;;;5015146;28;20025;-68
2023/06/15 12:01:46;;;;;;;5.40;2.00;;;28.20;46.20;;;;;;5015129;28;20443;-68
2023/06/15 12:04:13;;;;;;;5.03;2.10;;;28.20;48.40;;;;;;5017916;28;20032;-68
2023/06/15 12:06:40;;;;;;;7.65;2.33;;;28.40;46.90;;;;;;5014341;28;20499;-68
2023/06/15 12:09:07;;;;;;;3.10;1.90;;;28.60;46.20;;;;;;5019800;28;20550;-68
2023/06/15 12:11:33;;;;;;;5.80;2.35;;;28.60;47.20;;;;;;5014828;28;20050;-68
2023/06/15 12:14:06;;;;;;;3.10;1.98;;;29.00;47.60;;;;;;5022479;28;20075;-68
2023/06/15 12:16:31;;;;;;;5.93;2.30;;;29.10;47.50;;;;;;5014690;28;20044;-66
2023/06/15 12:19:01;;;;;;;5.90;2.45;;;29.10;47.40;;;;;;5015641;28;20375;-66
2023/06/15 12:21:38;;;;;;;6.88;2.53;;;29.10;47.30;;;;;;5014238;28;20387;-66
2023/06/15 12:24:24;;;;;;;5.20;2.10;;;28.80;48.30;;;;;;5014617;28;20062;-66
2023/06/15 12:26:57;;;;;;;7.85;2.05;;;28.70;48.90;;;;;;5022196;28;20073;-66
2023/06/15 12:29:24;;;;;;;3.50;2.03;;;28.60;49.10;;;;;;5019564;28;21066;-66
2023/06/15 12:31:53;;;;;;;6.03;2.20;;;28.50;48.20;;;;;;5017411;28;20121;-66
2023/06/15 12:34:24;;;;;;;8.57;2.55;;;28.20;48.00;;;;;;5015616;28;20052;-66
2023/06/15 12:36:54;;;;;;;4.25;2.33;;;27.70;48.70;;;;;;5012860;28;20123;-66
2023/06/15 12:39:28;;;;;;;4.97;2.03;;;27.50;49.10;;;;;;5020540;28;20021;-66
2023/06/15 12:41:58;;;;;;;4.65;2.47;;;27.70;48.10;;;;;;5018088;28;20032;-66
2023/06/15 12:44:24;;;;;;;11.95;2.53;;;28.00;49.20;;;;;;5020650;28;20387;-66
2023/06/15 12:46:51;;;;;;;4.88;2.40;;;28.30;47.30;;;;;;5022452;28;20030;-66
2023/06/15 12:49:16;;;;;;;4.32;2.08;;;28.40;48.10;;;;;;5022008;28;20128;-66